Time;durP1;ratioP1;P1;durP2;ratioP2;P2;SDS_P1;SDS_P2;PMS_P1;PMS_P2;Temp;Humidity;BMP_temperature;BMP_pressure;BME280_temperature;BME280_humidity;BME280_pressure;Samples;Min_cycle;Max_cycle;Signal;HPM_P1;HPM_P2
2024/02/05 00:00:43;;;;;;;2.50;2.05;;;;;;;;;;4995857;28;20046;-80
2024/02/05 00:03:10;;;;;;;5.50;2.40;;;;;;;;;;4995410;28;20050;-80
2024/02/05 00:05:37;;;;;;;3.70;2.20;;;;;;;;;;4996715;28;20100;-80
2024/02/05 00:08:05;;;;;;;2.72;2.10;;;;;;;;;;4995455;28;20052;-80
2024/02/05 00:10:33;;;;;;;2.85;2.17;;;;;;;;;;4995623;28;20373;-80
2024/02/05 00:13:00;;;;;;;3.03;2.03;;;;;;;;;;4996020;28;20047;-80
2024/02/05 00:15:27;;;;;;;3.72;2.10;;;;;;;;;;4995940;28;20042;-80
2024/02/05 00:17:53;;;;;;;3.20;2.40;;;;;;;;;;4995779;28;20061;-80
2024/02/05 00:20:20;;;;;;;2.10;1.88;;;;;;;;;;4993447;28;20053;-81
2024/02/05 00:22:47;;;;;;;4.82;1.90;;;;;;;;;;4994266;28;20042;-80
2024/02/05 00:25:14;;;;;;;3.50;2.00;;;;;;;;;;4992437;28;20045;-80
2024/02/05 00:27:41;;;;;;;3.40;1.90;;;;;;;;;;4992540;28;20054;-81
2024/02/05 00:30:10;;;;;;;4.68;2.15;;;;;;;;;;4993547;28;20046;-80
2024/02/05 00:32:39;;;;;;;3.92;2.22;;;;;;;;;;4992477;28;20057;-80
2024/02/05 00:35:08;;;;;;;7.45;2.70;;;;;;;;;;4975982;28;20543;-80
2024/02/05 00:37:35;;;;;;;4.50;2.60;;;;;;;;;;4993291;28;20057;-80
2024/02/05 00:40:05;;;;;;;7.03;2.70;;;;;;;;;;4976032;28;20046;-79
2024/02/05 00:42:32;;;;;;;6.95;2.50;;;;;;;;;;4959461;28;20108;-80
2024/02/05 00:45:00;;;;;;;8.70;3.53;;;;;;;;;;4993581;28;20038;-79
2024/02/05 00:47:26;;;;;;;7.65;3.08;;;;;;;;;;4992670;28;20077;-79
2024/02/05 00:49:53;;;;;;;7.93;3.40;;;;;;;;;;4993464;28;20046;-80
2024/02/05 00:52:20;;;;;;;4.75;2.60;;;;;;;;;;4992256;28;20053;-80
2024/02/05 00:54:47;;;;;;;4.32;2.22;;;;;;;;;;4993278;28;20046;-79
2024/02/05 00:57:14;;;;;;;5.57;2.65;;;;;;;;;;4992673;28;20105;-79
2024/02/05 00:59:40;;;;;;;4.30;1.98;;;;;;;;;;4975391;28;20051;-80
2024/02/05 01:02:07;;;;;;;3.28;1.50;;;;;;;;;;4992740;28;20125;-80
2024/02/05 01:04:34;;;;;;;3.45;1.20;;;;;;;;;;4993057;28;20125;-79
2024/02/05 01:07:01;;;;;;;4.68;1.70;;;;;;;;;;4993232;28;20046;-80
2024/02/05 01:09:28;;;;;;;4.35;1.88;;;;;;;;;;4991845;28;20046;-79
2024/02/05 01:11:55;;;;;;;8.65;1.55;;;;;;;;;;4992709;28;20070;-80
2024/02/05 01:14:22;;;;;;;4.07;1.67;;;;;;;;;;4974947;28;20046;-79
2024/02/05 01:16:49;;;;;;;2.55;1.45;;;;;;;;;;4992861;28;20042;-79
2024/02/05 01:19:16;;;;;;;3.03;1.48;;;;;;;;;;4992446;28;20561;-80
2024/02/05 01:21:43;;;;;;;3.42;1.13;;;;;;;;;;4992803;28;20064;-80
2024/02/05 01:24:10;;;;;;;4.28;1.27;;;;;;;;;;4974808;28;20452;-80
2024/02/05 01:26:36;;;;;;;5.63;1.63;;;;;;;;;;4992915;28;20054;-79
2024/02/05 01:29:06;;;;;;;8.45;1.90;;;;;;;;;;4992428;28;20046;-79
2024/02/05 01:31:33;;;;;;;4.43;1.70;;;;;;;;;;4975334;28;20050;-80
2024/02/05 01:34:01;;;;;;;5.53;1.58;;;;;;;;;;4975415;28;20081;-79
2024/02/05 01:36:28;;;;;;;4.20;1.63;;;;;;;;;;4975835;28;20058;-80
2024/02/05 01:38:55;;;;;;;13.57;1.48;;;;;;;;;;4994275;28;20054;-80
2024/02/05 01:41:22;;;;;;;10.52;1.45;;;;;;;;;;4993012;28;20042;-79
2024/02/05 01:43:48;;;;;;;22.50;1.85;;;;;;;;;;4960290;28;20482;-80
2024/02/05 01:46:20;;;;;;;20.33;1.63;;;;;;;;;;4990827;28;20046;-80
2024/02/05 01:48:54;;;;;;;22.90;1.70;;;;;;;;;;4992313;28;20076;-80
2024/02/05 01:51:23;;;;;;;33.75;3.38;;;;;;;;;;4991877;28;20070;-80
2024/02/05 01:53:52;;;;;;;13.73;2.58;;;;;;;;;;4992622;28;20042;-80
2024/02/05 01:56:27;;;;;;;9.13;2.75;;;;;;;;;;4992659;28;20039;-79
2024/02/05 01:58:54;;;;;;;6.90;3.65;;;;;;;;;;4992794;28;20377;-80
2024/02/05 02:01:21;;;;;;;6.25;2.55;;;;;;;;;;4992067;28;20491;-79
2024/02/05 02:03:49;;;;;;;2.75;1.17;;;;;;;;;;4992104;28;20057;-80
2024/02/05 02:06:17;;;;;;;5.15;1.08;;;;;;;;;;4991666;28;20489;-79
2024/02/05 02:08:45;;;;;;;3.38;1.13;;;;;;;;;;4992194;28;20038;-80
2024/02/05 02:11:12;;;;;;;3.67;1.10;;;;;;;;;;4992226;28;20046;-80
2024/02/05 02:13:39;;;;;;;4.40;1.10;;;;;;;;;;4992345;28;20054;-80
2024/02/05 02:16:11;;;;;;;4.85;1.10;;;;;;;;;;4991960;28;20042;-79
2024/02/05 02:18:38;;;;;;;5.60;1.30;;;;;;;;;;4992151;28;20043;-80
2024/02/05 02:21:08;;;;;;;3.40;1.03;;;;;;;;;;4991714;28;20050;-79
2024/02/05 02:23:35;;;;;;;3.17;1.00;;;;;;;;;;4993801;28;20047;-80
2024/02/05 02:26:02;;;;;;;4.20;1.33;;;;;;;;;;4993427;28;20042;-79
2024/02/05 02:28:29;;;;;;;3.10;1.20;;;;;;;;;;4991859;28;20054;-80
2024/02/05 02:30:56;;;;;;;3.13;1.17;;;;;;;;;;4991864;28;20433;-79
2024/02/05 02:33:35;;;;;;;3.13;1.17;;;;;;;;;;4991245;28;20047;-80
2024/02/05 02:36:06;;;;;;;3.15;1.50;;;;;;;;;;4992067;28;20048;-79
2024/02/05 02:38:40;;;;;;;3.30;0.93;;;;;;;;;;4991377;28;20660;-80
2024/02/05 02:41:13;;;;;;;3.95;1.10;;;;;;;;;;4991300;28;20046;-80
2024/02/05 02:43:56;;;;;;;3.05;1.05;;;;;;;;;;4991524;28;20050;-80
2024/02/05 02:46:23;;;;;;;2.65;0.90;;;;;;;;;;4991118;28;20547;-80
2024/02/05 02:48:50;;;;;;;2.35;1.20;;;;;;;;;;4991812;28;20042;-80
2024/02/05 02:51:17;;;;;;;2.60;1.40;;;;;;;;;;4991114;28;20038;-80
2024/02/05 02:53:44;;;;;;;3.10;1.42;;;;;;;;;;4991457;28;20462;-80
2024/02/05 02:56:10;;;;;;;6.28;1.63;;;;;;;;;;4991383;28;20376;-80
2024/02/05 02:58:37;;;;;;;2.83;1.48;;;;;;;;;;4991530;28;20106;-79
2024/02/05 03:01:04;;;;;;;5.10;1.67;;;;;;;;;;4991277;28;20064;-78
2024/02/05 03:03:31;;;;;;;8.13;1.33;;;;;;;;;;4991194;28;20093;-80
2024/02/05 03:05:58;;;;;;;14.88;1.67;;;;;;;;;;4991653;28;20042;-79
2024/02/05 03:08:25;;;;;;;13.25;1.55;;;;;;;;;;4990865;28;20042;-80
2024/02/05 03:10:52;;;;;;;9.77;1.40;;;;;;;;;;4991458;28;20101;-80
2024/02/05 03:13:19;;;;;;;22.85;1.70;;;;;;;;;;4990964;28;20050;-80
2024/02/05 03:15:46;;;;;;;27.85;1.60;;;;;;;;;;4990737;28;20105;-80
2024/02/05 03:18:13;;;;;;;36.78;1.85;;;;;;;;;;4994971;28;20042;-80
2024/02/05 03:20:41;;;;;;;52.53;2.42;;;;;;;;;;4995122;28;20125;-79
2024/02/05 03:23:11;;;;;;;66.00;2.03;;;;;;;;;;4994762;28;20038;-80
2024/02/05 03:25:39;;;;;;;61.63;2.50;;;;;;;;;;4977256;28;20062;-80
2024/02/05 03:28:10;;;;;;;52.17;2.15;;;;;;;;;;4994693;28;20137;-80
2024/02/05 03:30:38;;;;;;;64.05;2.50;;;;;;;;;;4994849;28;20382;-80
2024/02/05 03:33:05;;;;;;;37.90;1.67;;;;;;;;;;4993296;28;20042;-80
2024/02/05 03:35:33;;;;;;;29.98;1.45;;;;;;;;;;4994809;28;20054;-80
2024/02/05 03:38:00;;;;;;;34.00;1.80;;;;;;;;;;4994936;28;20213;-80
2024/02/05 03:40:27;;;;;;;39.13;1.88;;;;;;;;;;4994032;28;20058;-80
2024/02/05 03:42:54;;;;;;;6.10;1.35;;;;;;;;;;4994815;28;20051;-79
2024/02/05 03:45:21;;;;;;;11.40;1.05;;;;;;;;;;4993988;28;20047;-80
2024/02/05 03:47:48;;;;;;;7.97;1.30;;;;;;;;;;4977333;28;20118;-80
2024/02/05 03:50:15;;;;;;;6.63;1.38;;;;;;;;;;4994005;28;20060;-80
2024/02/05 03:52:43;;;;;;;16.60;2.08;;;;;;;;;;4994411;28;20494;-80
2024/02/05 03:55:12;;;;;;;3.08;1.70;;;;;;;;;;4994067;28;20035;-80
2024/02/05 03:57:44;;;;;;;7.55;1.80;;;;;;;;;;4994163;28;20042;-80
2024/02/05 04:00:12;;;;;;;7.07;1.60;;;;;;;;;;4976506;28;20042;-80
2024/02/05 04:02:39;;;;;;;5.28;2.28;;;;;;;;;;4994132;28;20075;-80
2024/02/05 04:05:07;;;;;;;4.88;1.80;;;;;;;;;;4993977;28;20511;-80
2024/02/05 04:07:37;;;;;;;4.50;1.58;;;;;;;;;;4994130;28;20048;-80
2024/02/05 04:10:04;;;;;;;4.68;1.40;;;;;;;;;;4993163;28;20413;-80
2024/02/05 04:12:31;;;;;;;4.95;1.67;;;;;;;;;;4993696;28;20485;-80
2024/02/05 04:14:58;;;;;;;2.42;1.00;;;;;;;;;;4994181;28;20046;-80
2024/02/05 04:17:25;;;;;;;4.60;1.40;;;;;;;;;;4993670;28;20042;-79
2024/02/05 04:19:52;;;;;;;4.30;1.55;;;;;;;;;;4993724;28;20048;-79
2024/02/05 04:22:19;;;;;;;5.22;2.17;;;;;;;;;;4992209;28;20049;-79
2024/02/05 04:24:46;;;;;;;5.43;2.70;;;;;;;;;;4993703;28;20516;-80
2024/02/05 04:27:14;;;;;;;4.97;1.90;;;;;;;;;;4975013;28;20053;-80
2024/02/05 04:29:41;;;;;;;8.48;1.77;;;;;;;;;;4993764;28;20134;-80
2024/02/05 04:32:08;;;;;;;7.05;1.70;;;;;;;;;;4993609;28;20054;-80
2024/02/05 04:34:35;;;;;;;10.88;2.25;;;;;;;;;;4993493;28;20046;-79
2024/02/05 04:37:02;;;;;;;13.80;2.20;;;;;;;;;;4992484;28;20053;-79
2024/02/05 04:39:28;;;;;;;8.95;1.80;;;;;;;;;;4993205;28;20034;-80
2024/02/05 04:41:55;;;;;;;26.60;2.80;;;;;;;;;;4993713;28;20055;-80
2024/02/05 04:44:22;;;;;;;6.15;2.10;;;;;;;;;;4992987;28;20486;-80
2024/02/05 04:46:49;;;;;;;11.07;2.33;;;;;;;;;;4993457;28;20504;-80
2024/02/05 04:49:18;;;;;;;10.55;2.20;;;;;;;;;;4992895;28;20042;-80
2024/02/05 04:51:49;;;;;;;27.10;2.55;;;;;;;;;;4993426;28;20544;-79
2024/02/05 04:54:16;;;;;;;35.53;2.72;;;;;;;;;;4993884;28;20058;-80
2024/02/05 04:56:43;;;;;;;18.45;2.30;;;;;;;;;;4993266;28;20034;-79
2024/02/05 04:59:11;;;;;;;26.38;2.40;;;;;;;;;;4993081;28;20237;-80
2024/02/05 05:01:37;;;;;;;70.38;3.20;;;;;;;;;;4993234;28;20058;-80
2024/02/05 05:04:04;;;;;;;41.17;2.58;;;;;;;;;;4993228;28;20051;-80
2024/02/05 05:06:31;;;;;;;70.68;2.90;;;;;;;;;;4991728;28;20487;-80
2024/02/05 05:08:58;;;;;;;51.42;2.63;;;;;;;;;;4993060;28;20050;-80
2024/02/05 05:11:25;;;;;;;24.83;2.30;;;;;;;;;;4992835;28;20039;-80
2024/02/05 05:13:51;;;;;;;33.30;2.42;;;;;;;;;;4993161;28;20042;-80
2024/02/05 05:16:19;;;;;;;34.85;2.47;;;;;;;;;;4992559;28;20065;-80
2024/02/05 05:18:46;;;;;;;11.63;1.98;;;;;;;;;;4992742;28;20268;-80
2024/02/05 05:21:13;;;;;;;46.75;2.95;;;;;;;;;;4992719;28;20481;-80
2024/02/05 05:23:41;;;;;;;40.50;2.97;;;;;;;;;;4993520;28;20042;-80
2024/02/05 05:26:08;;;;;;;22.95;2.50;;;;;;;;;;4975050;28;20050;-79
2024/02/05 05:28:38;;;;;;;14.05;2.30;;;;;;;;;;4995192;28;20052;-80
2024/02/05 05:31:05;;;;;;;14.73;2.28;;;;;;;;;;4994548;28;20042;-79
2024/02/05 05:33:32;;;;;;;25.33;2.67;;;;;;;;;;4994054;28;20429;-80
2024/02/05 05:35:59;;;;;;;43.75;3.28;;;;;;;;;;4994240;28;20061;-78
2024/02/05 05:38:25;;;;;;;29.67;3.05;;;;;;;;;;4992772;28;20038;-80
2024/02/05 05:40:52;;;;;;;41.22;3.38;;;;;;;;;;4993195;28;20050;-80
2024/02/05 05:43:19;;;;;;;55.80;3.05;;;;;;;;;;4993432;28;20042;-80
2024/02/05 05:45:46;;;;;;;43.20;2.42;;;;;;;;;;4993194;28;20295;-80
2024/02/05 05:48:13;;;;;;;38.78;2.53;;;;;;;;;;4993092;28;20038;-80
2024/02/05 05:50:40;;;;;;;21.13;2.00;;;;;;;;;;4992299;28;20137;-79
2024/02/05 05:53:07;;;;;;;16.35;1.73;;;;;;;;;;4992600;28;20045;-80
2024/02/05 05:55:33;;;;;;;9.85;1.33;;;;;;;;;;4990629;28;20046;-80
2024/02/05 05:58:00;;;;;;;10.05;1.58;;;;;;;;;;4989981;28;20050;-81
2024/02/05 06:00:27;;;;;;;30.45;2.20;;;;;;;;;;4971492;28;20384;-80
2024/02/05 06:02:55;;;;;;;8.57;1.60;;;;;;;;;;4990264;28;20038;-80
2024/02/05 06:05:22;;;;;;;4.65;1.50;;;;;;;;;;4988078;28;20097;-80
2024/02/05 06:07:49;;;;;;;3.92;1.52;;;;;;;;;;4988568;28;20039;-80
2024/02/05 06:10:16;;;;;;;2.67;1.50;;;;;;;;;;4989207;28;20369;-80
2024/02/05 06:12:44;;;;;;;3.53;2.00;;;;;;;;;;4985178;28;20050;-80
2024/02/05 06:15:14;;;;;;;5.18;2.33;;;;;;;;;;4991130;28;20039;-80
2024/02/05 06:17:41;;;;;;;4.35;2.65;;;;;;;;;;4973968;28;20057;-84
2024/02/05 06:20:08;;;;;;;4.80;2.70;;;;;;;;;;4992177;28;20042;-80
2024/02/05 06:22:40;;;;;;;5.40;2.58;;;;;;;;;;4992305;28;20092;-81
2024/02/05 06:25:07;;;;;;;7.70;2.85;;;;;;;;;;4989977;28;20476;-81
2024/02/05 06:27:34;;;;;;;9.57;2.90;;;;;;;;;;4988276;28;20492;-79
2024/02/05 06:30:01;;;;;;;6.90;3.00;;;;;;;;;;4990173;28;20038;-80
2024/02/05 06:32:28;;;;;;;9.25;3.13;;;;;;;;;;4992133;28;20042;-80
2024/02/05 06:34:55;;;;;;;5.70;2.47;;;;;;;;;;4993721;28;20066;-80
2024/02/05 06:37:22;;;;;;;5.32;2.97;;;;;;;;;;4989232;28;20061;-81
2024/02/05 06:39:49;;;;;;;4.85;2.55;;;;;;;;;;4972430;28;20054;-81
2024/02/05 06:42:16;;;;;;;5.80;2.88;;;;;;;;;;4991353;28;20137;-80
2024/02/05 06:44:45;;;;;;;4.30;1.95;;;;;;;;;;4991659;28;20046;-80
2024/02/05 06:47:12;;;;;;;;;;;;;;;;;;4974602;28;20470;-80
2024/02/05 06:49:38;;;;;;;3.17;1.98;;;;;;;;;;4990109;28;19929;-80
2024/02/05 06:52:06;;;;;;;3.00;1.50;;;;;;;;;;4994618;28;20489;-80
2024/02/05 06:54:32;;;;;;;3.58;1.80;;;;;;;;;;4995588;28;20042;-83
2024/02/05 06:57:00;;;;;;;3.40;1.67;;;;;;;;;;4994464;28;20524;-80
2024/02/05 06:59:27;;;;;;;3.92;1.80;;;;;;;;;;4995237;28;20056;-80
2024/02/05 07:01:54;;;;;;;4.43;1.95;;;;;;;;;;4993995;28;20051;-80
2024/02/05 07:04:21;;;;;;;2.78;1.80;;;;;;;;;;4984741;28;20039;-80
2024/02/05 07:06:48;;;;;;;3.97;1.80;;;;;;;;;;4993473;28;20547;-80
2024/02/05 07:09:15;;;;;;;4.53;2.20;;;;;;;;;;4985186;28;20038;-81
2024/02/05 07:11:42;;;;;;;3.95;2.13;;;;;;;;;;4978004;28;20319;-81
2024/02/05 07:14:09;;;;;;;2.72;2.20;;;;;;;;;;4994615;28;20050;-81
2024/02/05 07:16:36;;;;;;;2.97;2.10;;;;;;;;;;4979377;28;20057;-81
2024/02/05 07:19:03;;;;;;;5.25;2.00;;;;;;;;;;4962967;28;20058;-81
2024/02/05 07:21:30;;;;;;;3.65;2.00;;;;;;;;;;4961500;28;20045;-81
2024/02/05 07:23:56;;;;;;;2.60;2.05;;;;;;;;;;4972804;28;20043;-81
2024/02/05 07:26:23;;;;;;;6.97;2.50;;;;;;;;;;4969058;28;20524;-81
2024/02/05 07:28:50;;;;;;;8.43;2.50;;;;;;;;;;4990360;28;20054;-81
2024/02/05 07:31:16;;;;;;;8.13;2.75;;;;;;;;;;4991455;28;20057;-81
2024/02/05 07:33:43;;;;;;;19.10;2.95;;;;;;;;;;4974343;28;20058;-81
2024/02/05 07:36:10;;;;;;;12.18;2.92;;;;;;;;;;4990300;28;20034;-81
2024/02/05 07:38:38;;;;;;;14.80;2.78;;;;;;;;;;4976260;28;20046;-81
2024/02/05 07:41:06;;;;;;;13.13;3.17;;;;;;;;;;4975423;28;20034;-81
2024/02/05 07:43:37;;;;;;;6.93;2.85;;;;;;;;;;4990984;28;20381;-81
2024/02/05 07:46:04;;;;;;;58.70;4.97;;;;;;;;;;4994628;28;20097;-81
2024/02/05 07:48:31;;;;;;;55.20;3.75;;;;;;;;;;4980014;28;20046;-81
2024/02/05 07:50:59;;;;;;;12.77;2.70;;;;;;;;;;4954137;28;20042;-81
2024/02/05 07:53:26;;;;;;;16.70;4.35;;;;;;;;;;4979410;28;20046;-81
2024/02/05 07:55:52;;;;;;;11.82;3.30;;;;;;;;;;4996330;28;20070;-81
2024/02/05 07:58:20;;;;;;;9.38;3.47;;;;;;;;;;4974665;28;20035;-81
2024/02/05 08:00:47;;;;;;;14.03;3.23;;;;;;;;;;4978896;28;20046;-81
2024/02/05 08:03:14;;;;;;;11.00;3.83;;;;;;;;;;4993745;28;20038;-81
2024/02/05 08:05:41;;;;;;;9.55;3.95;;;;;;;;;;4974877;28;20053;-81
2024/02/05 08:08:09;;;;;;;9.43;4.38;;;;;;;;;;4978094;28;20047;-81
2024/02/05 08:10:36;;;;;;;11.18;4.05;;;;;;;;;;4973225;28;20046;-80
2024/02/05 08:13:04;;;;;;;6.32;4.57;;;;;;;;;;4959157;28;20035;-80
2024/02/05 08:15:30;;;;;;;7.18;4.25;;;;;;;;;;4980478;28;20046;-81
2024/02/05 08:17:57;;;;;;;9.27;5.20;;;;;;;;;;4994037;28;20073;-80
2024/02/05 08:20:24;;;;;;;8.73;5.15;;;;;;;;;;4990227;28;20058;-81
2024/02/05 08:22:52;;;;;;;6.38;4.10;;;;;;;;;;4984044;28;20292;-81
2024/02/05 08:25:18;;;;;;;9.82;4.82;;;;;;;;;;4983503;28;20046;-81
2024/02/05 08:27:45;;;;;;;8.20;4.68;;;;;;;;;;4967606;28;20501;-80
2024/02/05 08:30:13;;;;;;;8.13;5.00;;;;;;;;;;4978966;28;20569;-81
2024/02/05 08:32:40;;;;;;;6.68;4.07;;;;;;;;;;4993009;28;20044;-80
2024/02/05 08:35:07;;;;;;;5.82;4.55;;;;;;;;;;4995430;28;20050;-81
2024/02/05 08:37:34;;;;;;;8.32;5.53;;;;;;;;;;4993352;28;20129;-81
2024/02/05 08:40:01;;;;;;;8.07;4.60;;;;;;;;;;4993490;28;20065;-81
2024/02/05 08:42:28;;;;;;;6.82;4.88;;;;;;;;;;4992654;28;20050;-81
2024/02/05 08:45:00;;;;;;;10.73;5.18;;;;;;;;;;4941282;28;20256;-81
2024/02/05 08:47:30;;;;;;;7.28;4.90;;;;;;;;;;4972515;28;20116;-81
2024/02/05 08:49:58;;;;;;;7.78;4.53;;;;;;;;;;4956941;28;20042;-81
2024/02/05 08:52:25;;;;;;;10.80;6.10;;;;;;;;;;4987392;28;20050;-81
2024/02/05 08:54:52;;;;;;;12.50;6.25;;;;;;;;;;4993009;28;20073;-81
2024/02/05 08:57:18;;;;;;;9.30;6.38;;;;;;;;;;4960935;28;20042;-81
2024/02/05 08:59:45;;;;;;;11.65;7.05;;;;;;;;;;5008199;28;20049;-81
2024/02/05 09:02:14;;;;;;;14.48;7.20;;;;;;;;;;4987437;28;20053;-82
2024/02/05 09:04:42;;;;;;;14.50;7.88;;;;;;;;;;4976142;28;20058;-81
2024/02/05 09:07:09;;;;;;;13.48;6.53;;;;;;;;;;4991354;28;20058;-81
2024/02/05 09:09:36;;;;;;;13.45;6.93;;;;;;;;;;4991519;28;20042;-81
2024/02/05 09:12:03;;;;;;;13.75;7.55;;;;;;;;;;4996578;28;20398;-81
2024/02/05 09:14:34;;;;;;;11.45;7.85;;;;;;;;;;4939940;28;20548;-81
2024/02/05 09:17:02;;;;;;;11.77;7.88;;;;;;;;;;4973671;28;20442;-81
2024/02/05 09:19:29;;;;;;;14.07;7.70;;;;;;;;;;4955423;28;20589;-82
2024/02/05 09:21:56;;;;;;;13.98;7.40;;;;;;;;;;4971781;28;20445;-81
2024/02/05 09:24:23;;;;;;;17.48;6.93;;;;;;;;;;4943098;28;20492;-81
2024/02/05 09:26:50;;;;;;;12.70;7.22;;;;;;;;;;4975358;28;20042;-81
2024/02/05 09:29:17;;;;;;;12.88;6.88;;;;;;;;;;4974882;28;20043;-81
2024/02/05 09:31:44;;;;;;;17.65;7.65;;;;;;;;;;4973882;28;20105;-81
2024/02/05 09:34:14;;;;;;;17.92;7.63;;;;;;;;;;4982676;28;20121;-82
2024/02/05 09:36:41;;;;;;;18.42;8.55;;;;;;;;;;4974361;28;20050;-81
2024/02/05 09:39:09;;;;;;;16.30;10.05;;;;;;;;;;4997762;28;20375;-81
2024/02/05 09:41:39;;;;;;;14.35;8.57;;;;;;;;;;4985306;28;20470;-81
2024/02/05 09:44:06;;;;;;;19.58;8.30;;;;;;;;;;4984054;28;20057;-81
2024/02/05 09:46:33;;;;;;;17.98;8.88;;;;;;;;;;4969085;28;20573;-81
2024/02/05 09:49:03;;;;;;;19.75;9.60;;;;;;;;;;4993410;28;20058;-81
2024/02/05 09:51:36;;;;;;;21.75;10.65;;;;;;;;;;4994591;28;20046;-81
2024/02/05 09:54:04;;;;;;;18.42;10.90;;;;;;;;;;4992399;28;20034;-81
2024/02/05 09:56:44;;;;;;;22.10;10.32;;;;;;;;;;4993466;28;20401;-81
2024/02/05 09:59:11;;;;;;;16.23;9.45;;;;;;;;;;4991949;28;20425;-81
2024/02/05 10:01:38;;;;;;;16.30;9.23;;;;;;;;;;4992883;28;20078;-81
2024/02/05 10:04:09;;;;;;;24.50;10.10;;;;;;;;;;4993085;28;20050;-80
2024/02/05 10:06:44;;;;;;;19.40;9.02;;;;;;;;;;4972949;28;20184;-81
2024/02/05 10:09:12;;;;;;;15.75;7.95;;;;;;;;;;4991190;28;20217;-81
2024/02/05 10:11:46;;;;;;;14.20;7.78;;;;;;;;;;4974316;28;20047;-81
2024/02/05 10:14:13;;;;;;;13.45;7.28;;;;;;;;;;4990847;28;20042;-81
2024/02/05 10:16:40;;;;;;;16.70;7.55;;;;;;;;;;4992962;28;20635;-81
2024/02/05 10:19:07;;;;;;;13.35;7.32;;;;;;;;;;4991515;28;20093;-81
2024/02/05 10:21:34;;;;;;;15.63;7.38;;;;;;;;;;4992230;28;20050;-81
2024/02/05 10:24:01;;;;;;;13.52;7.40;;;;;;;;;;4992231;28;20050;-81
2024/02/05 10:26:27;;;;;;;15.93;7.95;;;;;;;;;;4977350;28;20046;-81
2024/02/05 10:29:05;;;;;;;13.50;7.35;;;;;;;;;;4979873;28;20429;-81
2024/02/05 10:31:32;;;;;;;14.38;7.65;;;;;;;;;;4996788;28;20061;-81
2024/02/05 10:34:00;;;;;;;16.63;8.60;;;;;;;;;;4979764;28;20054;-81
2024/02/05 10:36:27;;;;;;;16.38;9.38;;;;;;;;;;4996373;28;20053;-81
2024/02/05 10:38:54;;;;;;;20.40;12.52;;;;;;;;;;4990252;28;20050;-82
2024/02/05 10:41:21;;;;;;;21.45;9.98;;;;;;;;;;4968217;28;20112;-81
2024/02/05 10:43:49;;;;;;;15.07;9.57;;;;;;;;;;4979372;28;20038;-81
2024/02/05 10:46:16;;;;;;;21.70;9.93;;;;;;;;;;4979468;28;20043;-81
2024/02/05 10:48:45;;;;;;;18.10;10.85;;;;;;;;;;4980015;28;20066;-81
2024/02/05 10:51:14;;;;;;;18.77;12.52;;;;;;;;;;4979461;28;20556;-81
2024/02/05 10:53:43;;;;;;;33.97;20.42;;;;;;;;;;4979697;28;20073;-81
2024/02/05 10:56:14;;;;;;;36.63;25.05;;;;;;;;;;4996303;28;20073;-81
2024/02/05 10:58:42;;;;;;;46.55;28.33;;;;;;;;;;4963717;28;20061;-81
2024/02/05 11:01:10;;;;;;;63.10;34.33;;;;;;;;;;4996286;28;20046;-82
2024/02/05 11:03:39;;;;;;;55.83;27.80;;;;;;;;;;4963381;28;20054;-81
2024/02/05 11:06:07;;;;;;;55.45;30.50;;;;;;;;;;4996262;28;20042;-80
2024/02/05 11:08:37;;;;;;;90.80;56.65;;;;;;;;;;4995867;28;20042;-81
2024/02/05 11:11:09;;;;;;;60.15;32.72;;;;;;;;;;4980349;28;20358;-81
2024/02/05 11:13:47;;;;;;;40.13;23.95;;;;;;;;;;4997876;28;20042;-81
2024/02/05 11:16:16;;;;;;;45.97;23.48;;;;;;;;;;4995679;28;20053;-81
2024/02/05 11:18:50;;;;;;;83.50;48.83;;;;;;;;;;4977875;28;20367;-81
2024/02/05 11:21:25;;;;;;;58.38;34.75;;;;;;;;;;4977498;28;20053;-81
2024/02/05 11:23:54;;;;;;;32.20;21.50;;;;;;;;;;4994072;28;20232;-81
2024/02/05 11:26:20;;;;;;;32.67;19.33;;;;;;;;;;4995017;28;20101;-80
2024/02/05 11:28:53;;;;;;;14.25;7.88;;;;;;;;;;4996888;28;20396;-81
2024/02/05 11:31:24;;;;;;;17.67;11.85;;;;;;;;;;4996705;28;20042;-81
2024/02/05 11:33:58;;;;;;;16.50;8.93;;;;;;;;;;4996443;28;20057;-81
2024/02/05 11:36:27;;;;;;;14.25;9.23;;;;;;;;;;4962167;28;20046;-81
2024/02/05 11:39:05;;;;;;;18.10;11.40;;;;;;;;;;4978655;28;20046;-81
2024/02/05 11:41:32;;;;;;;31.77;20.73;;;;;;;;;;4995756;28;20386;-81
2024/02/05 11:44:06;;;;;;;26.60;18.52;;;;;;;;;;4996175;28;20038;-81
2024/02/05 11:46:33;;;;;;;23.13;14.05;;;;;;;;;;4978502;28;20385;-81
2024/02/05 11:49:02;;;;;;;10.00;8.95;;;;;;;;;;4994735;28;20046;-81
2024/02/05 11:51:30;;;;;;;;;;;;;;;;;;4978628;28;20066;-81
2024/02/05 11:53:59;;;;;;;11.25;4.97;;;;;;;;;;4995940;28;19957;-81
2024/02/05 11:56:26;;;;;;;14.52;5.88;;;;;;;;;;4995471;28;20042;-81
2024/02/05 11:58:53;;;;;;;11.88;4.82;;;;;;;;;;4994217;28;20046;-80
2024/02/05 12:01:21;;;;;;;10.82;4.45;;;;;;;;;;4977743;28;20370;-81
2024/02/05 12:03:48;;;;;;;8.52;3.22;;;;;;;;;;4997031;28;20070;-80
2024/02/05 12:06:16;;;;;;;7.63;3.83;;;;;;;;;;4977470;28;20421;-81
2024/02/05 12:08:44;;;;;;;11.10;3.80;;;;;;;;;;4993749;28;20057;-81
2024/02/05 12:11:12;;;;;;;8.15;5.10;;;;;;;;;;4992481;28;20043;-81
2024/02/05 12:13:39;;;;;;;4.60;3.53;;;;;;;;;;4992522;28;20049;-81
2024/02/05 12:16:13;;;;;;;6.75;3.45;;;;;;;;;;4993500;28;20429;-81
2024/02/05 12:18:40;;;;;;;11.95;4.65;;;;;;;;;;4976379;28;20137;-81
2024/02/05 12:21:10;;;;;;;7.93;4.60;;;;;;;;;;4960504;28;20054;-81
2024/02/05 12:23:38;;;;;;;6.07;4.40;;;;;;;;;;4993567;28;20475;-81
2024/02/05 12:26:06;;;;;;;7.18;3.50;;;;;;;;;;4993620;28;20378;-81
2024/02/05 12:28:41;;;;;;;9.05;3.70;;;;;;;;;;4993648;28;20490;-81
2024/02/05 12:31:07;;;;;;;4.78;3.63;;;;;;;;;;4993730;28;20050;-81
2024/02/05 12:33:34;;;;;;;8.75;6.90;;;;;;;;;;4977946;28;20031;-81
2024/02/05 12:36:07;;;;;;;8.80;4.60;;;;;;;;;;4994925;28;20559;-82
2024/02/05 12:38:34;;;;;;;8.57;4.03;;;;;;;;;;4977654;28;20457;-81
2024/02/05 12:41:01;;;;;;;9.77;5.05;;;;;;;;;;4995354;28;20074;-80
2024/02/05 12:43:32;;;;;;;6.97;3.40;;;;;;;;;;4995397;28;20070;-81
2024/02/05 12:45:59;;;;;;;8.15;4.72;;;;;;;;;;4995819;28;20070;-80
2024/02/05 12:48:27;;;;;;;9.95;3.72;;;;;;;;;;4974607;28;20056;-80
2024/02/05 12:50:54;;;;;;;8.18;3.63;;;;;;;;;;4992316;28;20058;-81
2024/02/05 12:53:22;;;;;;;5.55;3.65;;;;;;;;;;4975478;28;20042;-80
2024/02/05 12:55:53;;;;;;;9.95;5.40;;;;;;;;;;4976169;28;20046;-80
2024/02/05 12:58:22;;;;;;;9.70;5.95;;;;;;;;;;4975478;28;20492;-80
2024/02/05 13:00:50;;;;;;;8.60;5.78;;;;;;;;;;5006646;28;20081;-80
2024/02/05 13:03:20;;;;;;;10.45;6.82;;;;;;;;;;5009108;28;20050;-78
2024/02/05 13:05:47;;;;;;;10.10;7.85;;;;;;;;;;5009479;28;20054;-80
2024/02/05 13:08:15;;;;;;;11.30;8.23;;;;;;;;;;4994009;28;20528;-80
2024/02/05 13:10:45;;;;;;;10.27;8.63;;;;;;;;;;4993359;28;20484;-80
2024/02/05 13:13:13;;;;;;;20.17;13.07;;;;;;;;;;4992867;28;20047;-80
2024/02/05 13:15:41;;;;;;;13.23;10.05;;;;;;;;;;4993218;28;20137;-80
2024/02/05 13:18:10;;;;;;;21.10;12.98;;;;;;;;;;5008908;28;20088;-80
2024/02/05 13:20:38;;;;;;;13.32;8.60;;;;;;;;;;4993741;28;20474;-80
2024/02/05 13:23:05;;;;;;;13.98;9.63;;;;;;;;;;4994870;28;20052;-79
2024/02/05 13:25:32;;;;;;;14.43;11.10;;;;;;;;;;4994640;28;20100;-80
2024/02/05 13:28:10;;;;;;;14.50;10.35;;;;;;;;;;4995184;28;20054;-80
2024/02/05 13:30:39;;;;;;;15.20;10.00;;;;;;;;;;4994660;28;20121;-80
2024/02/05 13:33:07;;;;;;;19.20;15.45;;;;;;;;;;4977115;28;20489;-80
2024/02/05 13:35:34;;;;;;;21.33;16.55;;;;;;;;;;4991676;28;20511;-80
2024/02/05 13:38:02;;;;;;;22.73;17.80;;;;;;;;;;4992701;28;20050;-78
2024/02/05 13:40:33;;;;;;;14.70;10.88;;;;;;;;;;4992085;28;20046;-80
2024/02/05 13:43:01;;;;;;;19.70;12.75;;;;;;;;;;4991201;28;20053;-80
2024/02/05 13:45:28;;;;;;;17.55;12.95;;;;;;;;;;4990624;28;20044;-80
2024/02/05 13:47:55;;;;;;;15.93;11.45;;;;;;;;;;4991002;28;20053;-81
2024/02/05 13:50:23;;;;;;;20.98;13.18;;;;;;;;;;4991866;28;20046;-80
2024/02/05 13:52:50;;;;;;;14.35;9.90;;;;;;;;;;4992653;28;20124;-80
2024/02/05 13:55:17;;;;;;;16.17;12.73;;;;;;;;;;5007196;28;20034;-81
2024/02/05 13:57:45;;;;;;;14.27;11.30;;;;;;;;;;4992240;28;20038;-80
2024/02/05 14:00:13;;;;;;;16.00;8.88;;;;;;;;;;4990782;28;20038;-81
2024/02/05 14:02:41;;;;;;;13.95;9.35;;;;;;;;;;4993701;28;20047;-81
2024/02/05 14:05:09;;;;;;;13.98;8.93;;;;;;;;;;4976033;28;20136;-81
2024/02/05 14:07:38;;;;;;;12.57;8.73;;;;;;;;;;4976544;28;20394;-81
2024/02/05 14:10:05;;;;;;;11.52;7.95;;;;;;;;;;4977250;28;20152;-81
2024/02/05 14:12:32;;;;;;;15.10;10.70;;;;;;;;;;4993115;28;20117;-80
2024/02/05 14:14:59;;;;;;;16.85;10.10;;;;;;;;;;4993468;28;20150;-80
2024/02/05 14:17:26;;;;;;;11.65;9.63;;;;;;;;;;4976266;28;20061;-81
2024/02/05 14:19:52;;;;;;;11.55;7.90;;;;;;;;;;4993359;28;20066;-80
2024/02/05 14:22:20;;;;;;;10.80;8.60;;;;;;;;;;4992967;28;20070;-80
2024/02/05 14:24:46;;;;;;;12.93;9.02;;;;;;;;;;4993115;28;20504;-81
2024/02/05 14:27:13;;;;;;;12.75;6.93;;;;;;;;;;4975650;28;20046;-81
2024/02/05 14:29:43;;;;;;;12.23;7.65;;;;;;;;;;4993399;28;20405;-81
2024/02/05 14:32:10;;;;;;;11.45;6.22;;;;;;;;;;4975376;28;20362;-80
2024/02/05 14:34:37;;;;;;;12.18;6.82;;;;;;;;;;4993410;28;20065;-80
2024/02/05 14:37:04;;;;;;;12.40;7.45;;;;;;;;;;4975895;28;20046;-80
2024/02/05 14:39:32;;;;;;;10.25;6.75;;;;;;;;;;4992143;28;20106;-80